Maersk_kyrenia — VRGM8 — position and weather

sailwx.info

Track history (hours):
 
Tides and Currents Weather Stations Pressure Air Temp Water Temp Dewpoint Dewpoint Depression Visibility Wind Speed Wind Dir Waves Ship Positions

Maersk_kyrenia

Last reported at 2014-Sep-03 06:33 UTC. Time now 2014-Sep-03 06:59 UTC.
Position N 53°36' E 008°31'.

Length 300 m; draft 10.7 m.

MMSI: 477733600.

Date/timePositionNaut miles runAvg speedWind from/ knotsBaromVisibWave heightAir tempDewpointWater temp
2014-Sep-03 06:33N 53°36' E 008°31'0 0.0
2014-Sep-03 05:33N 53°36' E 008°31'0 0.0
2014-Sep-03 04:33N 53°36' E 008°31'0 0.0
2014-Sep-03 03:33N 53°36' E 008°31'0 0.0
2014-Sep-03 02:33N 53°36' E 008°31'0 0.0
2014-Sep-03 01:33N 53°36' E 008°31'0 0.0
2014-Sep-03 00:33N 53°36' E 008°31'0 0.0
2014-Sep-02 23:33N 53°36' E 008°31'0 0.0
2014-Sep-02 22:33N 53°36' E 008°31'0 0.0
2014-Sep-02 21:33N 53°36' E 008°31'0 0.0
2014-Sep-02 20:33N 53°36' E 008°31'9 8.6
2014-Sep-02 19:34N 53°42' E 008°21'1514.9
2014-Sep-02 18:34N 53°51' E 008°01'1312.5
2014-Sep-02 17:33N 53°53' E 007°40'4 4.0
2014-Sep-02 16:32N 53°53' E 007°33'2 2.3
2014-Sep-02 15:32N 53°54' E 007°29'3013.7
2014-Sep-02 13:20N 53°47' E 006°39'1414.3
2014-Sep-02 12:19N 53°44' E 006°16'1114.3
2014-Sep-02 11:33N 53°40' E 005°58'1414.1
2014-Sep-02 10:33N 53°36' E 005°36'1413.9
2014-Sep-02 09:33N 53°33' E 005°13'1413.7
2014-Sep-02 08:33N 53°28' E 004°51'2713.6
2014-Sep-02 06:33N 53°05' E 004°25'1414.2
2014-Sep-02 05:33N 52°52' E 004°16'1414.0
2014-Sep-02 04:33N 52°41' E 004°04'1413.7
2014-Sep-02 03:32N 52°31' E 003°47'1313.5
2014-Sep-02 02:33N 52°19' E 003°37'2612.9
2014-Sep-02 00:31N 51°55' E 003°21'1312.5
2014-Sep-01 23:31N 51°43' E 003°15'1514.7
2014-Sep-01 22:28N 51°29' E 003°03'1213.1
2014-Sep-01 21:34N 51°24' E 003°20'1414.3
2014-Sep-01 20:34N 51°24' E 003°43'1212.1
2014-Sep-01 19:33N 51°25' E 004°02'1010.4
2014-Sep-01 18:34N 51°20' E 004°16'2 2.2
2014-Sep-01 17:29N 51°17' E 004°15'0 0.0
2014-Sep-01 16:29N 51°17' E 004°15'0 0.0
2014-Sep-01 15:26N 51°17' E 004°15'0 0.0
2014-Sep-01 14:29N 51°17' E 004°15'0 0.0
2014-Sep-01 13:32N 51°17' E 004°15'0 0.0
2014-Sep-01 12:32N 51°17' E 004°15'0 0.0
2014-Sep-01 11:32N 51°17' E 004°15'0 0.0
2014-Sep-01 10:26N 51°17' E 004°15'0 0.0
2014-Sep-01 09:20N 51°17' E 004°15'0 0.0
2014-Sep-01 08:11N 51°17' E 004°15'0 0.0
2014-Sep-01 07:28N 51°17' E 004°15'0 0.0
2014-Sep-01 06:31N 51°17' E 004°15'0 0.0
2014-Sep-01 05:25N 51°17' E 004°15'0 0.0
2014-Sep-01 04:31N 51°17' E 004°15'0 0.0
2014-Sep-01 03:31N 51°17' E 004°15'0 0.0
2014-Sep-01 02:16N 51°17' E 004°15'0 0.0
2014-Sep-01 00:19N 51°17' E 004°15'0 0.0
2014-Aug-31 23:19N 51°17' E 004°15'0 0.0
2014-Aug-31 22:28N 51°17' E 004°15'0 0.0
2014-Aug-31 21:31N 51°17' E 004°15'0 0.0
2014-Aug-31 20:31N 51°17' E 004°15'0 0.0
2014-Aug-31 19:31N 51°17' E 004°15'0 0.0
2014-Aug-31 18:28N 51°17' E 004°15'2 2.5
2014-Aug-31 17:33N 51°20' E 004°16'1110.8
2014-Aug-31 16:34N 51°25' E 004°02'1212.0
2014-Aug-31 15:33N 51°24' E 003°43'9 9.1
2014-Aug-31 14:33N 51°25' E 003°28'1313.3
2014-Aug-31 13:33N 51°24' E 003°07'1616.2
2014-Aug-31 12:33N 51°22' E 002°41'1313.2
2014-Aug-31 11:33N 51°19' E 002°20'1212.5
2014-Aug-31 10:34N 51°21' E 002°01'1414.2
2014-Aug-31 09:33N 51°34' E 001°49'1413.7
2014-Aug-31 08:33N 51°47' E 001°44'8 7.5
2014-Aug-31 07:33N 51°46' E 001°32'1817.9
2014-Aug-31 06:33N 51°34' E 001°11'1818.2
2014-Aug-31 05:33N 51°30' E 000°43'8 7.9
2014-Aug-31 04:33N 51°30' E 000°30'0 0.0
2014-Aug-31 03:33N 51°30' E 000°30'0 0.0
2014-Aug-31 02:33N 51°30' E 000°30'0 0.0
2014-Aug-31 01:30N 51°30' E 000°30'0 0.0
2014-Aug-31 00:33N 51°30' E 000°30'0 0.0
2014-Aug-30 23:33N 51°30' E 000°30'0 0.0
2014-Aug-30 22:33N 51°30' E 000°30'0 0.0
2014-Aug-30 21:33N 51°30' E 000°30'0 0.0
2014-Aug-30 20:33N 51°30' E 000°30'0 0.0
2014-Aug-30 19:33N 51°30' E 000°30'0 0.0
2014-Aug-30 18:33N 51°30' E 000°30'0 0.0
2014-Aug-30 17:33N 51°30' E 000°30'0 0.0
2014-Aug-30 16:33N 51°30' E 000°30'0 0.0
2014-Aug-30 15:33N 51°30' E 000°30'0 0.0
2014-Aug-30 14:33N 51°30' E 000°30'0 0.0
2014-Aug-30 13:33N 51°30' E 000°30'0 0.0
2014-Aug-30 12:33N 51°30' E 000°30'0 0.0
2014-Aug-30 11:33N 51°30' E 000°30'0 0.0
2014-Aug-30 10:33N 51°30' E 000°30'0 0.0
2014-Aug-30 09:33N 51°30' E 000°30'0 0.0
2014-Aug-30 08:33N 51°30' E 000°30'0 0.0
2014-Aug-30 07:33N 51°30' E 000°30'0 0.0
2014-Aug-30 06:32N 51°30' E 000°30'1 1.2
2014-Aug-30 05:33N 51°30' E 000°32'8 8.2
2014-Aug-30 04:33N 51°30' E 000°45'1515.0
2014-Aug-30 03:34N 51°33' E 001°08'1716.7
2014-Aug-30 02:33N 51°43' E 001°29'1111.1
2014-Aug-30 01:33N 51°52' E 001°41'4 4.2
2014-Aug-30 00:33N 51°52' E 001°48'4 3.7
2014-Aug-29 23:33N 51°48' E 001°48'1716.6
2014-Aug-29 22:33N 51°32' E 001°53'1515.2
2014-Aug-29 21:33N 51°20' E 002°08'1515.4
2014-Aug-29 20:33N 51°10' E 001°50'1616.2
2014-Aug-29 19:33N 50°59' E 001°31'3416.3
2014-Aug-29 17:29N 50°31' E 001°01'1717.0
2014-Aug-29 16:28N 50°26' E 000°35'84317.4
2014-Aug-27 16:03N 38°29' W 009°46'918.4
2014-Aug-27 15:32N 38°20' W 009°43'11716.8
2014-Aug-27 08:33N 36°36' W 008°35'1919.1
2014-Aug-27 07:33N 36°30' W 008°13'2419.0
2014-Aug-27 06:16N 36°21' W 007°44'1519.1
2014-Aug-27 05:30N 36°17' W 007°27'3618.6
2014-Aug-27 03:33N 36°06' W 006°44'63 8.6
2014-Aug-26 20:12N 36°09' W 005°26'0 0.0
2014-Aug-26 19:27N 36°09' W 005°26'0 0.0
2014-Aug-26 18:33N 36°09' W 005°26'0 0.0
2014-Aug-26 16:20N 36°09' W 005°26'165 6.7
2014-Aug-25 15:33N 36°27' W 002°02'3614.6
2014-Aug-25 13:04N 36°32' W 001°18'2814.2
2014-Aug-25 11:08N 36°36' W 000°44'814.0
2014-Aug-25 10:33N 36°37' W 000°34'1414.4
2014-Aug-25 09:33N 36°38' W 000°16'1414.1
2014-Aug-25 08:34N 36°40' E 000°01'1413.7
2014-Aug-25 07:33N 36°41' E 000°19'1212.6
2014-Aug-25 06:33N 36°42' E 000°34'10313.8
2014-Aug-24 23:05N 36°57' E 002°41'713.8
2014-Aug-24 22:33N 36°58' E 002°51'5714.0
2014-Aug-24 18:29N 37°05' E 004°02'1313.7
2014-Aug-24 17:33N 37°07' E 004°18'  
Track history (hours):
 
Tides and Currents Weather Stations Pressure Air Temp Water Temp Dewpoint Dewpoint Depression Visibility Wind Speed Wind Dir Waves Ship Positions

Maersk_kyrenia

Last reported at 2014-Sep-03 06:33 UTC. Time now 2014-Sep-03 06:59 UTC.
Position N 53°36' E 008°31'.

Length 300 m; draft 10.7 m.

MMSI: 477733600.

Date/timePositionNaut miles runAvg speedWind from/ knotsBaromVisibWave heightAir tempDewpointWater temp
2014-Sep-03 06:33N 53°36' E 008°31'0 0.0
2014-Sep-03 05:33N 53°36' E 008°31'0 0.0
2014-Sep-03 04:33N 53°36' E 008°31'0 0.0
2014-Sep-03 03:33N 53°36' E 008°31'0 0.0
2014-Sep-03 02:33N 53°36' E 008°31'0 0.0
2014-Sep-03 01:33N 53°36' E 008°31'0 0.0
2014-Sep-03 00:33N 53°36' E 008°31'0 0.0
2014-Sep-02 23:33N 53°36' E 008°31'0 0.0
2014-Sep-02 22:33N 53°36' E 008°31'0 0.0
2014-Sep-02 21:33N 53°36' E 008°31'0 0.0
2014-Sep-02 20:33N 53°36' E 008°31'9 8.6
2014-Sep-02 19:34N 53°42' E 008°21'1514.9
2014-Sep-02 18:34N 53°51' E 008°01'1312.5
2014-Sep-02 17:33N 53°53' E 007°40'4 4.0
2014-Sep-02 16:32N 53°53' E 007°33'2 2.3
2014-Sep-02 15:32N 53°54' E 007°29'3013.7
2014-Sep-02 13:20N 53°47' E 006°39'1414.3
2014-Sep-02 12:19N 53°44' E 006°16'1114.3
2014-Sep-02 11:33N 53°40' E 005°58'1414.1
2014-Sep-02 10:33N 53°36' E 005°36'1413.9
2014-Sep-02 09:33N 53°33' E 005°13'1413.7
2014-Sep-02 08:33N 53°28' E 004°51'2713.6
2014-Sep-02 06:33N 53°05' E 004°25'1414.2
2014-Sep-02 05:33N 52°52' E 004°16'1414.0
2014-Sep-02 04:33N 52°41' E 004°04'1413.7
2014-Sep-02 03:32N 52°31' E 003°47'1313.5
2014-Sep-02 02:33N 52°19' E 003°37'2612.9
2014-Sep-02 00:31N 51°55' E 003°21'1312.5
2014-Sep-01 23:31N 51°43' E 003°15'1514.7
2014-Sep-01 22:28N 51°29' E 003°03'1213.1
2014-Sep-01 21:34N 51°24' E 003°20'1414.3
2014-Sep-01 20:34N 51°24' E 003°43'1212.1
2014-Sep-01 19:33N 51°25' E 004°02'1010.4
2014-Sep-01 18:34N 51°20' E 004°16'2 2.2
2014-Sep-01 17:29N 51°17' E 004°15'0 0.0
2014-Sep-01 16:29N 51°17' E 004°15'0 0.0
2014-Sep-01 15:26N 51°17' E 004°15'0 0.0
2014-Sep-01 14:29N 51°17' E 004°15'0 0.0
2014-Sep-01 13:32N 51°17' E 004°15'0 0.0
2014-Sep-01 12:32N 51°17' E 004°15'0 0.0
2014-Sep-01 11:32N 51°17' E 004°15'0 0.0
2014-Sep-01 10:26N 51°17' E 004°15'0 0.0
2014-Sep-01 09:20N 51°17' E 004°15'0 0.0
2014-Sep-01 08:11N 51°17' E 004°15'0 0.0
2014-Sep-01 07:28N 51°17' E 004°15'0 0.0
2014-Sep-01 06:31N 51°17' E 004°15'0 0.0
2014-Sep-01 05:25N 51°17' E 004°15'0 0.0
2014-Sep-01 04:31N 51°17' E 004°15'0 0.0
2014-Sep-01 03:31N 51°17' E 004°15'0 0.0
2014-Sep-01 02:16N 51°17' E 004°15'0 0.0
2014-Sep-01 00:19N 51°17' E 004°15'0 0.0
2014-Aug-31 23:19N 51°17' E 004°15'0 0.0
2014-Aug-31 22:28N 51°17' E 004°15'0 0.0
2014-Aug-31 21:31N 51°17' E 004°15'0 0.0
2014-Aug-31 20:31N 51°17' E 004°15'0 0.0
2014-Aug-31 19:31N 51°17' E 004°15'0 0.0
2014-Aug-31 18:28N 51°17' E 004°15'2 2.5
2014-Aug-31 17:33N 51°20' E 004°16'1110.8
2014-Aug-31 16:34N 51°25' E 004°02'1212.0
2014-Aug-31 15:33N 51°24' E 003°43'9 9.1
2014-Aug-31 14:33N 51°25' E 003°28'1313.3
2014-Aug-31 13:33N 51°24' E 003°07'1616.2
2014-Aug-31 12:33N 51°22' E 002°41'1313.2
2014-Aug-31 11:33N 51°19' E 002°20'1212.5
2014-Aug-31 10:34N 51°21' E 002°01'1414.2
2014-Aug-31 09:33N 51°34' E 001°49'1413.7
2014-Aug-31 08:33N 51°47' E 001°44'8 7.5
2014-Aug-31 07:33N 51°46' E 001°32'1817.9
2014-Aug-31 06:33N 51°34' E 001°11'1818.2
2014-Aug-31 05:33N 51°30' E 000°43'8 7.9
2014-Aug-31 04:33N 51°30' E 000°30'0 0.0
2014-Aug-31 03:33N 51°30' E 000°30'0 0.0
2014-Aug-31 02:33N 51°30' E 000°30'0 0.0
2014-Aug-31 01:30N 51°30' E 000°30'0 0.0
2014-Aug-31 00:33N 51°30' E 000°30'0 0.0
2014-Aug-30 23:33N 51°30' E 000°30'0 0.0
2014-Aug-30 22:33N 51°30' E 000°30'0 0.0
2014-Aug-30 21:33N 51°30' E 000°30'0 0.0
2014-Aug-30 20:33N 51°30' E 000°30'0 0.0
2014-Aug-30 19:33N 51°30' E 000°30'0 0.0
2014-Aug-30 18:33N 51°30' E 000°30'0 0.0
2014-Aug-30 17:33N 51°30' E 000°30'0 0.0
2014-Aug-30 16:33N 51°30' E 000°30'0 0.0
2014-Aug-30 15:33N 51°30' E 000°30'0 0.0
2014-Aug-30 14:33N 51°30' E 000°30'0 0.0
2014-Aug-30 13:33N 51°30' E 000°30'0 0.0
2014-Aug-30 12:33N 51°30' E 000°30'0 0.0
2014-Aug-30 11:33N 51°30' E 000°30'0 0.0
2014-Aug-30 10:33N 51°30' E 000°30'0 0.0
2014-Aug-30 09:33N 51°30' E 000°30'0 0.0
2014-Aug-30 08:33N 51°30' E 000°30'0 0.0
2014-Aug-30 07:33N 51°30' E 000°30'0 0.0
2014-Aug-30 06:32N 51°30' E 000°30'1 1.2
2014-Aug-30 05:33N 51°30' E 000°32'8 8.2
2014-Aug-30 04:33N 51°30' E 000°45'1515.0
2014-Aug-30 03:34N 51°33' E 001°08'1716.7
2014-Aug-30 02:33N 51°43' E 001°29'1111.1
2014-Aug-30 01:33N 51°52' E 001°41'4 4.2
2014-Aug-30 00:33N 51°52' E 001°48'4 3.7
2014-Aug-29 23:33N 51°48' E 001°48'1716.6
2014-Aug-29 22:33N 51°32' E 001°53'1515.2
2014-Aug-29 21:33N 51°20' E 002°08'1515.4
2014-Aug-29 20:33N 51°10' E 001°50'1616.2
2014-Aug-29 19:33N 50°59' E 001°31'3416.3
2014-Aug-29 17:29N 50°31' E 001°01'1717.0
2014-Aug-29 16:28N 50°26' E 000°35'84317.4
2014-Aug-27 16:03N 38°29' W 009°46'918.4
2014-Aug-27 15:32N 38°20' W 009°43'11716.8
2014-Aug-27 08:33N 36°36' W 008°35'1919.1
2014-Aug-27 07:33N 36°30' W 008°13'2419.0
2014-Aug-27 06:16N 36°21' W 007°44'1519.1
2014-Aug-27 05:30N 36°17' W 007°27'3618.6
2014-Aug-27 03:33N 36°06' W 006°44'63 8.6
2014-Aug-26 20:12N 36°09' W 005°26'0 0.0
2014-Aug-26 19:27N 36°09' W 005°26'0 0.0
2014-Aug-26 18:33N 36°09' W 005°26'0 0.0
2014-Aug-26 16:20N 36°09' W 005°26'165 6.7
2014-Aug-25 15:33N 36°27' W 002°02'3614.6
2014-Aug-25 13:04N 36°32' W 001°18'2814.2
2014-Aug-25 11:08N 36°36' W 000°44'814.0
2014-Aug-25 10:33N 36°37' W 000°34'1414.4
2014-Aug-25 09:33N 36°38' W 000°16'1414.1
2014-Aug-25 08:34N 36°40' E 000°01'1413.7
2014-Aug-25 07:33N 36°41' E 000°19'1212.6
2014-Aug-25 06:33N 36°42' E 000°34'10313.8
2014-Aug-24 23:05N 36°57' E 002°41'713.8
2014-Aug-24 22:33N 36°58' E 002°51'5714.0
2014-Aug-24 18:29N 37°05' E 004°02'1313.7
2014-Aug-24 17:33N 37°07' E 004°18'  

Dump ship's entire track history